sensor_id;sensor_type;location;lat;lon;timestamp;pressure;altitude;pressure_sealevel;temperature;humidity
78206;BME280;67480;48.920;12.880;2023-08-17T00:01:32;97120.63;;;19.20;63.35
78206;BME280;67480;48.920;12.880;2023-08-17T00:03:57;97133.19;;;19.19;62.41
78206;BME280;67480;48.920;12.880;2023-08-17T00:06:23;97133.69;;;19.21;62.75
78206;BME280;67480;48.920;12.880;2023-08-17T00:08:48;97121.41;;;19.20;62.27
78206;BME280;67480;48.920;12.880;2023-08-17T00:11:13;97133.69;;;19.21;62.31
78206;BME280;67480;48.920;12.880;2023-08-17T00:13:39;97134.47;;;19.22;62.31
78206;BME280;67480;48.920;12.880;2023-08-17T00:16:04;97130.97;;;19.27;61.67
78206;BME280;67480;48.920;12.880;2023-08-17T00:18:29;97129.34;;;19.26;62.23
78206;BME280;67480;48.920;12.880;2023-08-17T00:20:55;97126.69;;;19.26;61.59
78206;BME280;67480;48.920;12.880;2023-08-17T00:23:21;97125.63;;;19.27;61.58
78206;BME280;67480;48.920;12.880;2023-08-17T00:25:47;97135.19;;;19.28;61.66
78206;BME280;67480;48.920;12.880;2023-08-17T00:28:13;97140.03;;;19.26;61.53
78206;BME280;67480;48.920;12.880;2023-08-17T00:30:39;97137.44;;;19.20;62.77
78206;BME280;67480;48.920;12.880;2023-08-17T00:33:04;97120.78;;;19.10;63.44
78206;BME280;67480;48.920;12.880;2023-08-17T00:35:30;97119.25;;;19.04;63.23
78206;BME280;67480;48.920;12.880;2023-08-17T00:37:55;97113.19;;;18.98;62.57
78206;BME280;67480;48.920;12.880;2023-08-17T00:40:21;97108.38;;;19.00;62.01
78206;BME280;67480;48.920;12.880;2023-08-17T00:42:46;97115.53;;;19.05;61.91
78206;BME280;67480;48.920;12.880;2023-08-17T00:45:11;97117.59;;;19.08;61.78
78206;BME280;67480;48.920;12.880;2023-08-17T00:47:37;97109.88;;;19.06;62.16
78206;BME280;67480;48.920;12.880;2023-08-17T00:50:03;97120.28;;;19.08;61.68
78206;BME280;67480;48.920;12.880;2023-08-17T00:52:30;97119.97;;;19.09;60.93
78206;BME280;67480;48.920;12.880;2023-08-17T00:54:57;97122.63;;;19.09;61.81
78206;BME280;67480;48.920;12.880;2023-08-17T00:57:23;97130.66;;;19.09;61.59
78206;BME280;67480;48.920;12.880;2023-08-17T00:59:48;97126.13;;;19.10;61.84
78206;BME280;67480;48.920;12.880;2023-08-17T01:02:15;97129.66;;;19.05;62.94
78206;BME280;67480;48.920;12.880;2023-08-17T01:04:42;97131.28;;;19.01;62.66
78206;BME280;67480;48.920;12.880;2023-08-17T01:07:07;97123.84;;;18.98;62.96
78206;BME280;67480;48.920;12.880;2023-08-17T01:09:32;97123.84;;;18.98;63.38
78206;BME280;67480;48.920;12.880;2023-08-17T01:12:29;97130.09;;;18.93;63.42
78206;BME280;67480;48.920;12.880;2023-08-17T01:17:56;97118.09;;;18.91;63.41
78206;BME280;67480;48.920;12.880;2023-08-17T01:20:24;97113.84;;;18.90;63.20
78206;BME280;67480;48.920;12.880;2023-08-17T01:22:52;97129.84;;;18.90;63.03
78206;BME280;67480;48.920;12.880;2023-08-17T01:25:18;97119.75;;;18.87;63.55
78206;BME280;67480;48.920;12.880;2023-08-17T01:27:45;97120.81;;;18.86;63.68
78206;BME280;67480;48.920;12.880;2023-08-17T01:30:13;97120.28;;;18.84;63.73
78206;BME280;67480;48.920;12.880;2023-08-17T01:33:08;97125.69;;;18.78;64.03
78206;BME280;67480;48.920;12.880;2023-08-17T01:35:34;97120.44;;;18.73;64.73
78206;BME280;67480;48.920;12.880;2023-08-17T01:38:06;97119.94;;;18.71;64.78
78206;BME280;67480;48.920;12.880;2023-08-17T01:41:09;97126.03;;;18.72;63.80
78206;BME280;67480;48.920;12.880;2023-08-17T01:43:44;97124.16;;;18.72;63.93
78206;BME280;67480;48.920;12.880;2023-08-17T01:46:14;97115.69;;;18.70;64.08
78206;BME280;67480;48.920;12.880;2023-08-17T01:48:41;97125.03;;;18.68;64.05
78206;BME280;67480;48.920;12.880;2023-08-17T01:51:07;97121.06;;;18.65;64.20
78206;BME280;67480;48.920;12.880;2023-08-17T01:53:32;97117.38;;;18.61;64.83
78206;BME280;67480;48.920;12.880;2023-08-17T01:55:57;97116.88;;;18.59;64.58
78206;BME280;67480;48.920;12.880;2023-08-17T01:58:23;97117.38;;;18.61;64.53
78206;BME280;67480;48.920;12.880;2023-08-17T02:00:48;97121.66;;;18.62;64.37
78206;BME280;67480;48.920;12.880;2023-08-17T02:03:13;97118.47;;;18.60;64.85
78206;BME280;67480;48.920;12.880;2023-08-17T02:05:44;97115.78;;;18.60;64.71
78206;BME280;67480;48.920;12.880;2023-08-17T02:08:09;97115.84;;;18.55;64.79
78206;BME280;67480;48.920;12.880;2023-08-17T02:10:34;97123.84;;;18.55;64.69
78206;BME280;67480;48.920;12.880;2023-08-17T02:13:00;97123.06;;;18.54;64.75
78206;BME280;67480;48.920;12.880;2023-08-17T02:15:25;97111.59;;;18.54;64.89
78206;BME280;67480;48.920;12.880;2023-08-17T02:17:50;97110.31;;;18.51;64.84
78206;BME280;67480;48.920;12.880;2023-08-17T02:20:16;97117.00;;;18.49;65.13
78206;BME280;67480;48.920;12.880;2023-08-17T02:22:41;97120.19;;;18.51;64.74
78206;BME280;67480;48.920;12.880;2023-08-17T02:25:07;97111.09;;;18.52;64.82
78206;BME280;67480;48.920;12.880;2023-08-17T02:27:33;97107.63;;;18.51;64.91
78206;BME280;67480;48.920;12.880;2023-08-17T02:29:58;97107.91;;;18.50;64.98
78206;BME280;67480;48.920;12.880;2023-08-17T02:32:24;97088.75;;;18.48;64.72
78206;BME280;67480;48.920;12.880;2023-08-17T02:34:49;97090.91;;;18.46;65.12
78206;BME280;67480;48.920;12.880;2023-08-17T02:37:14;97097.03;;;18.46;64.97
78206;BME280;67480;48.920;12.880;2023-08-17T02:39:40;97099.69;;;18.46;64.97
78206;BME280;67480;48.920;12.880;2023-08-17T02:42:05;97088.75;;;18.48;65.01
78206;BME280;67480;48.920;12.880;2023-08-17T02:44:31;97085.22;;;18.52;64.90
78206;BME280;67480;48.920;12.880;2023-08-17T02:46:56;97091.34;;;18.53;64.58
78206;BME280;67480;48.920;12.880;2023-08-17T02:49:21;97086.81;;;18.53;65.00
78206;BME280;67480;48.920;12.880;2023-08-17T02:51:47;97086.53;;;18.55;65.04
78206;BME280;67480;48.920;12.880;2023-08-17T02:54:12;97084.66;;;18.55;64.79
78206;BME280;67480;48.920;12.880;2023-08-17T02:56:37;97087.63;;;18.54;65.37
78206;BME280;67480;48.920;12.880;2023-08-17T02:59:03;97095.88;;;18.52;65.30
78206;BME280;67480;48.920;12.880;2023-08-17T03:01:28;97094.09;;;18.48;65.39
78206;BME280;67480;48.920;12.880;2023-08-17T03:03:55;97075.19;;;18.44;65.53
78206;BME280;67480;48.920;12.880;2023-08-17T03:06:20;97084.00;;;18.45;65.56
78206;BME280;67480;48.920;12.880;2023-08-17T03:08:45;97082.41;;;18.44;65.55
78206;BME280;67480;48.920;12.880;2023-08-17T03:11:11;97081.34;;;18.45;65.72
78206;BME280;67480;48.920;12.880;2023-08-17T03:13:37;97080.25;;;18.46;65.68
78206;BME280;67480;48.920;12.880;2023-08-17T03:16:02;97077.84;;;18.44;65.53
78206;BME280;67480;48.920;12.880;2023-08-17T03:18:27;97087.72;;;18.44;65.85
78206;BME280;67480;48.920;12.880;2023-08-17T03:20:53;97082.69;;;18.42;65.92
78206;BME280;67480;48.920;12.880;2023-08-17T03:23:18;97089.38;;;18.40;66.02
78206;BME280;67480;48.920;12.880;2023-08-17T03:25:43;97087.28;;;18.37;66.14
78206;BME280;67480;48.920;12.880;2023-08-17T03:28:11;97087.56;;;18.35;66.16
78206;BME280;67480;48.920;12.880;2023-08-17T03:30:36;97097.13;;;18.36;66.14
78206;BME280;67480;48.920;12.880;2023-08-17T03:33:02;97094.25;;;18.32;66.47
78206;BME280;67480;48.920;12.880;2023-08-17T03:35:27;97096.91;;;18.32;66.42
78206;BME280;67480;48.920;12.880;2023-08-17T03:37:53;97099.06;;;18.30;66.86
78206;BME280;67480;48.920;12.880;2023-08-17T03:40:18;97110.53;;;18.31;66.83
78206;BME280;67480;48.920;12.880;2023-08-17T03:42:44;97106.00;;;18.31;66.88
78206;BME280;67480;48.920;12.880;2023-08-17T03:45:09;97105.78;;;18.28;66.94
78206;BME280;67480;48.920;12.880;2023-08-17T03:47:35;97101.81;;;18.25;66.43
78206;BME280;67480;48.920;12.880;2023-08-17T03:50:00;97108.94;;;18.30;66.59
78206;BME280;67480;48.920;12.880;2023-08-17T03:52:26;97116.16;;;18.29;66.53
78206;BME280;67480;48.920;12.880;2023-08-17T03:54:51;97114.56;;;18.28;66.25
78206;BME280;67480;48.920;12.880;2023-08-17T03:57:17;97120.38;;;18.30;66.42
78206;BME280;67480;48.920;12.880;2023-08-17T03:59:42;97125.44;;;18.32;66.27
78206;BME280;67480;48.920;12.880;2023-08-17T04:02:07;97122.78;;;18.32;66.41
78206;BME280;67480;48.920;12.880;2023-08-17T04:04:33;97122.78;;;18.32;66.43
78206;BME280;67480;48.920;12.880;2023-08-17T04:06:58;97126.53;;;18.31;66.43
78206;BME280;67480;48.920;12.880;2023-08-17T04:09:23;97124.16;;;18.29;66.79
78206;BME280;67480;48.920;12.880;2023-08-17T04:11:49;97128.91;;;18.32;66.68
78206;BME280;67480;48.920;12.880;2023-08-17T04:14:14;97132.66;;;18.31;66.72
78206;BME280;67480;48.920;12.880;2023-08-17T04:16:40;97130.00;;;18.31;66.65
78206;BME280;67480;48.920;12.880;2023-08-17T04:19:05;97128.13;;;18.32;66.45
78206;BME280;67480;48.920;12.880;2023-08-17T04:21:31;97127.03;;;18.33;66.59
78206;BME280;67480;48.920;12.880;2023-08-17T04:23:56;97131.56;;;18.32;66.66
78206;BME280;67480;48.920;12.880;2023-08-17T04:26:22;97139.56;;;18.32;66.88
78206;BME280;67480;48.920;12.880;2023-08-17T04:28:47;97123.56;;;18.32;66.77
78206;BME280;67480;48.920;12.880;2023-08-17T04:31:12;97128.34;;;18.36;66.44
78206;BME280;67480;48.920;12.880;2023-08-17T04:33:39;97131.78;;;18.36;66.39
78206;BME280;67480;48.920;12.880;2023-08-17T04:36:05;97132.31;;;18.38;66.43
78206;BME280;67480;48.920;12.880;2023-08-17T04:38:30;97131.53;;;18.38;66.72
78206;BME280;67480;48.920;12.880;2023-08-17T04:40:55;97133.41;;;18.37;66.65
78206;BME280;67480;48.920;12.880;2023-08-17T04:43:21;97133.63;;;18.41;66.06
78206;BME280;67480;48.920;12.880;2023-08-17T04:45:46;97134.13;;;18.43;66.17
78206;BME280;67480;48.920;12.880;2023-08-17T04:48:13;97144.22;;;18.46;66.44
78206;BME280;67480;48.920;12.880;2023-08-17T04:50:39;97134.91;;;18.43;66.44
78206;BME280;67480;48.920;12.880;2023-08-17T04:53:04;97145.06;;;18.41;66.51
78206;BME280;67480;48.920;12.880;2023-08-17T04:55:30;97149.34;;;18.42;66.65
78206;BME280;67480;48.920;12.880;2023-08-17T04:57:57;97140.53;;;18.42;66.50
78206;BME280;67480;48.920;12.880;2023-08-17T05:00:22;97149.34;;;18.42;66.72
78206;BME280;67480;48.920;12.880;2023-08-17T05:02:53;97150.13;;;18.43;66.78
78206;BME280;67480;48.920;12.880;2023-08-17T05:05:18;97149.34;;;18.42;67.00
78206;BME280;67480;48.920;12.880;2023-08-17T05:07:44;97157.91;;;18.39;67.40
78206;BME280;67480;48.920;12.880;2023-08-17T05:10:09;97157.66;;;18.36;67.71
78206;BME280;67480;48.920;12.880;2023-08-17T05:12:35;97167.25;;;18.37;68.00
78206;BME280;67480;48.920;12.880;2023-08-17T05:15:00;97166.16;;;18.38;67.79
78206;BME280;67480;48.920;12.880;2023-08-17T05:17:25;97161.38;;;18.40;67.54
78206;BME280;67480;48.920;12.880;2023-08-17T05:19:51;97161.38;;;18.40;67.76
78206;BME280;67480;48.920;12.880;2023-08-17T05:22:16;97166.13;;;18.43;67.84
78206;BME280;67480;48.920;12.880;2023-08-17T05:24:42;97161.59;;;18.43;67.96
78206;BME280;67480;48.920;12.880;2023-08-17T05:27:07;97166.34;;;18.46;67.90
78206;BME280;67480;48.920;12.880;2023-08-17T05:29:33;97167.34;;;18.50;67.85
78206;BME280;67480;48.920;12.880;2023-08-17T05:31:58;97171.31;;;18.53;67.59
78206;BME280;67480;48.920;12.880;2023-08-17T05:34:24;97165.94;;;18.58;67.58
78206;BME280;67480;48.920;12.880;2023-08-17T05:36:50;97163.78;;;18.60;67.72
78206;BME280;67480;48.920;12.880;2023-08-17T05:39:15;97161.13;;;18.60;67.67
78206;BME280;67480;48.920;12.880;2023-08-17T05:41:41;97165.88;;;18.63;67.67
78206;BME280;67480;48.920;12.880;2023-08-17T05:44:06;97161.06;;;18.65;67.85
78206;BME280;67480;48.920;12.880;2023-08-17T05:46:33;97152.50;;;18.68;67.43
78206;BME280;67480;48.920;12.880;2023-08-17T05:48:58;97160.44;;;18.73;67.07
78206;BME280;67480;48.920;12.880;2023-08-17T05:51:24;97152.94;;;18.75;66.76
78206;BME280;67480;48.920;12.880;2023-08-17T05:53:50;97150.72;;;18.83;67.27
78206;BME280;67480;48.920;12.880;2023-08-17T05:56:15;97164.81;;;18.88;67.03
78206;BME280;67480;48.920;12.880;2023-08-17T05:58:40;97156.47;;;18.95;65.76
78206;BME280;67480;48.920;12.880;2023-08-17T06:01:10;97150.53;;;18.98;66.36
78206;BME280;67480;48.920;12.880;2023-08-17T06:03:37;97153.66;;;19.05;65.85
78206;BME280;67480;48.920;12.880;2023-08-17T06:06:06;97157.84;;;19.11;65.16
78206;BME280;67480;48.920;12.880;2023-08-17T06:08:31;97154.81;;;19.18;64.65
78206;BME280;67480;48.920;12.880;2023-08-17T06:10:57;97160.09;;;19.23;64.67
78206;BME280;67480;48.920;12.880;2023-08-17T06:13:23;97161.91;;;19.28;64.59
78206;BME280;67480;48.920;12.880;2023-08-17T06:15:48;97175.97;;;19.33;64.45
78206;BME280;67480;48.920;12.880;2023-08-17T06:18:14;97165.09;;;19.30;64.49
78206;BME280;67480;48.920;12.880;2023-08-17T06:20:40;97179.94;;;19.36;64.46
78206;BME280;67480;48.920;12.880;2023-08-17T06:23:06;97186.56;;;19.38;64.62
78206;BME280;67480;48.920;12.880;2023-08-17T06:25:31;97189.47;;;19.42;64.53
78206;BME280;67480;48.920;12.880;2023-08-17T06:27:57;97183.03;;;19.43;64.59
78206;BME280;67480;48.920;12.880;2023-08-17T06:30:22;97182.75;;;19.44;64.55
78206;BME280;67480;48.920;12.880;2023-08-17T06:32:47;97189.38;;;19.47;64.79
78206;BME280;67480;48.920;12.880;2023-08-17T06:35:13;97192.56;;;19.49;64.50
78206;BME280;67480;48.920;12.880;2023-08-17T06:37:38;97187.44;;;19.53;64.49
78206;BME280;67480;48.920;12.880;2023-08-17T06:40:04;97186.66;;;19.52;64.48
78206;BME280;67480;48.920;12.880;2023-08-17T06:42:34;97183.09;;;19.57;64.67
78206;BME280;67480;48.920;12.880;2023-08-17T06:44:59;97185.47;;;19.58;64.50
78206;BME280;67480;48.920;12.880;2023-08-17T06:47:25;97180.16;;;19.58;64.63
78206;BME280;67480;48.920;12.880;2023-08-17T06:49:51;97187.56;;;19.61;64.53
78206;BME280;67480;48.920;12.880;2023-08-17T06:52:16;97198.78;;;19.63;64.62
78206;BME280;67480;48.920;12.880;2023-08-17T06:54:42;97191.22;;;19.65;64.95
78206;BME280;67480;48.920;12.880;2023-08-17T06:57:07;97183.47;;;19.69;64.64
78206;BME280;67480;48.920;12.880;2023-08-17T06:59:32;97196.84;;;19.69;64.90
78206;BME280;67480;48.920;12.880;2023-08-17T07:02:01;97190.13;;;19.72;64.79
78206;BME280;67480;48.920;12.880;2023-08-17T07:04:27;97194.06;;;19.74;64.82
78206;BME280;67480;48.920;12.880;2023-08-17T07:06:52;97195.09;;;19.78;65.07
78206;BME280;67480;48.920;12.880;2023-08-17T07:09:17;97200.44;;;19.78;65.04
78206;BME280;67480;48.920;12.880;2023-08-17T07:11:44;97195.59;;;19.80;65.00
78206;BME280;67480;48.920;12.880;2023-08-17T07:14:09;97197.97;;;19.82;65.20
78206;BME280;67480;48.920;12.880;2023-08-17T07:16:35;97203.81;;;19.84;65.19
78206;BME280;67480;48.920;12.880;2023-08-17T07:19:00;97211.53;;;19.85;64.78
78206;BME280;67480;48.920;12.880;2023-08-17T07:21:26;97208.56;;;19.87;64.72
78206;BME280;67480;48.920;12.880;2023-08-17T07:23:54;97206.41;;;19.89;64.78
78206;BME280;67480;48.920;12.880;2023-08-17T07:26:20;97201.56;;;19.91;64.83
78206;BME280;67480;48.920;12.880;2023-08-17T07:28:46;97205.81;;;19.92;64.95
78206;BME280;67480;48.920;12.880;2023-08-17T07:31:12;97210.06;;;19.93;64.61
78206;BME280;67480;48.920;12.880;2023-08-17T07:33:39;97215.13;;;19.95;64.67
78206;BME280;67480;48.920;12.880;2023-08-17T07:36:04;97203.88;;;19.98;64.80
78206;BME280;67480;48.920;12.880;2023-08-17T07:38:30;97204.66;;;19.98;64.84
78206;BME280;67480;48.920;12.880;2023-08-17T07:40:55;97209.72;;;20.00;64.77
78206;BME280;67480;48.920;12.880;2023-08-17T07:43:21;97207.84;;;20.00;65.04
78206;BME280;67480;48.920;12.880;2023-08-17T07:45:56;97212.59;;;20.03;64.88
78206;BME280;67480;48.920;12.880;2023-08-17T07:48:22;97207.75;;;20.05;64.94
78206;BME280;67480;48.920;12.880;2023-08-17T07:50:51;97208.53;;;20.06;64.84
78206;BME280;67480;48.920;12.880;2023-08-17T07:53:17;97210.91;;;20.07;65.13
78206;BME280;67480;48.920;12.880;2023-08-17T07:55:43;97216.75;;;20.09;65.06
78206;BME280;67480;48.920;12.880;2023-08-17T07:58:08;97213.00;;;20.10;64.88
78206;BME280;67480;48.920;12.880;2023-08-17T08:00:34;97210.31;;;20.10;64.90
78206;BME280;67480;48.920;12.880;2023-08-17T08:02:59;97198.56;;;20.12;65.07
78206;BME280;67480;48.920;12.880;2023-08-17T08:05:28;97208.66;;;20.15;65.15
78206;BME280;67480;48.920;12.880;2023-08-17T08:07:53;97205.69;;;20.16;65.33
78206;BME280;67480;48.920;12.880;2023-08-17T08:10:18;97212.91;;;20.16;63.98
78206;BME280;67480;48.920;12.880;2023-08-17T08:12:44;97208.75;;;20.09;63.49
78206;BME280;67480;48.920;12.880;2023-08-17T08:15:09;97212.00;;;20.06;63.49
78206;BME280;67480;48.920;12.880;2023-08-17T08:17:35;97208.81;;;20.04;63.84
78206;BME280;67480;48.920;12.880;2023-08-17T08:20:01;97201.31;;;20.06;63.90
78206;BME280;67480;48.920;12.880;2023-08-17T08:22:26;97209.72;;;20.14;64.91
78206;BME280;67480;48.920;12.880;2023-08-17T08:24:51;97201.63;;;20.19;64.47
78206;BME280;67480;48.920;12.880;2023-08-17T08:27:17;97206.22;;;19.99;64.93
78206;BME280;67480;48.920;12.880;2023-08-17T08:29:42;97195.97;;;20.06;64.47
78206;BME280;67480;48.920;12.880;2023-08-17T08:32:08;97194.78;;;20.13;64.35
78206;BME280;67480;48.920;12.880;2023-08-17T08:34:33;97193.41;;;20.15;64.48
78206;BME280;67480;48.920;12.880;2023-08-17T08:36:58;97192.63;;;20.15;64.67
78206;BME280;67480;48.920;12.880;2023-08-17T08:39:27;97197.19;;;20.14;64.38
78206;BME280;67480;48.920;12.880;2023-08-17T08:41:53;97194.50;;;20.14;64.38
78206;BME280;67480;48.920;12.880;2023-08-17T08:44:19;97196.78;;;20.21;64.57
78206;BME280;67480;48.920;12.880;2023-08-17T08:46:45;97200.44;;;20.25;64.74
78206;BME280;67480;48.920;12.880;2023-08-17T08:49:12;97198.38;;;20.22;65.03
78206;BME280;67480;48.920;12.880;2023-08-17T08:51:47;97185.94;;;20.31;64.91
78206;BME280;67480;48.920;12.880;2023-08-17T08:54:21;97192.69;;;20.42;64.52
78206;BME280;67480;48.920;12.880;2023-08-17T08:56:52;97198.06;;;20.56;64.84
78206;BME280;67480;48.920;12.880;2023-08-17T08:59:19;97198.34;;;20.54;63.33
78206;BME280;67480;48.920;12.880;2023-08-17T09:01:45;97202.59;;;20.55;64.38
78206;BME280;67480;48.920;12.880;2023-08-17T09:04:12;97195.00;;;20.63;64.26
78206;BME280;67480;48.920;12.880;2023-08-17T09:06:38;97199.75;;;20.66;64.36
78206;BME280;67480;48.920;12.880;2023-08-17T09:09:05;97198.53;;;20.58;62.93
78206;BME280;67480;48.920;12.880;2023-08-17T09:11:31;97197.47;;;20.59;63.17
78206;BME280;67480;48.920;12.880;2023-08-17T09:13:56;97190.75;;;20.62;63.47
78206;BME280;67480;48.920;12.880;2023-08-17T09:16:22;97188.53;;;20.64;63.00
78206;BME280;67480;48.920;12.880;2023-08-17T09:18:47;97190.25;;;20.60;63.87
78206;BME280;67480;48.920;12.880;2023-08-17T09:21:23;97197.66;;;20.63;64.17
78206;BME280;67480;48.920;12.880;2023-08-17T09:23:52;97181.44;;;20.59;62.87
78206;BME280;67480;48.920;12.880;2023-08-17T09:26:22;97177.84;;;20.64;62.58
78206;BME280;67480;48.920;12.880;2023-08-17T09:28:52;97182.59;;;20.67;63.20
78206;BME280;67480;48.920;12.880;2023-08-17T09:31:25;97182.22;;;20.73;63.76
78206;BME280;67480;48.920;12.880;2023-08-17T09:33:51;97180.00;;;20.75;62.81
78206;BME280;67480;48.920;12.880;2023-08-17T09:36:22;97176.25;;;20.90;62.69
78206;BME280;67480;48.920;12.880;2023-08-17T09:38:48;97171.69;;;20.91;62.40
78206;BME280;67480;48.920;12.880;2023-08-17T09:41:15;97177.22;;;20.94;63.06
78206;BME280;67480;48.920;12.880;2023-08-17T09:43:41;97176.44;;;20.94;62.62
78206;BME280;67480;48.920;12.880;2023-08-17T09:46:06;97165.91;;;20.97;62.36
78206;BME280;67480;48.920;12.880;2023-08-17T09:48:32;97161.66;;;20.96;62.21
78206;BME280;67480;48.920;12.880;2023-08-17T09:50:58;97164.03;;;20.98;63.07
78206;BME280;67480;48.920;12.880;2023-08-17T09:53:24;97162.16;;;20.98;63.51
78206;BME280;67480;48.920;12.880;2023-08-17T09:55:50;97154.44;;;20.97;63.24
78206;BME280;67480;48.920;12.880;2023-08-17T09:58:16;97166.91;;;21.02;63.25
78206;BME280;67480;48.920;12.880;2023-08-17T10:00:49;97162.34;;;21.02;63.01
78206;BME280;67480;48.920;12.880;2023-08-17T10:03:15;97159.38;;;21.04;63.45
78206;BME280;67480;48.920;12.880;2023-08-17T10:05:43;97152.44;;;21.03;63.36
78206;BME280;67480;48.920;12.880;2023-08-17T10:08:11;97144.91;;;21.05;62.86
78206;BME280;67480;48.920;12.880;2023-08-17T10:10:43;97151.53;;;21.07;63.39
78206;BME280;67480;48.920;12.880;2023-08-17T10:15:44;97150.44;;;21.08;63.56
78206;BME280;67480;48.920;12.880;2023-08-17T10:18:20;97143.97;;;21.09;63.91
78206;BME280;67480;48.920;12.880;2023-08-17T10:21:00;97142.31;;;21.13;63.89
78206;BME280;67480;48.920;12.880;2023-08-17T10:23:27;97146.28;;;21.16;63.61
78206;BME280;67480;48.920;12.880;2023-08-17T10:25:53;97153.97;;;21.17;63.51
78206;BME280;67480;48.920;12.880;2023-08-17T10:28:19;97142.69;;;21.20;63.61
78206;BME280;67480;48.920;12.880;2023-08-17T10:30:45;97142.69;;;21.20;63.50
78206;BME280;67480;48.920;12.880;2023-08-17T10:33:11;97142.41;;;21.22;63.54
78206;BME280;67480;48.920;12.880;2023-08-17T10:35:38;97145.59;;;21.24;63.64
78206;BME280;67480;48.920;12.880;2023-08-17T10:38:05;97148.72;;;21.26;63.98
78206;BME280;67480;48.920;12.880;2023-08-17T10:40:40;97151.41;;;21.26;63.88
78206;BME280;67480;48.920;12.880;2023-08-17T10:43:06;97145.44;;;21.29;63.33
78206;BME280;67480;48.920;12.880;2023-08-17T10:45:33;97142.19;;;21.32;63.91
78206;BME280;67480;48.920;12.880;2023-08-17T10:48:24;97137.63;;;21.33;63.71
78206;BME280;67480;48.920;12.880;2023-08-17T10:50:59;97148.00;;;21.34;63.57
78206;BME280;67480;48.920;12.880;2023-08-17T10:53:25;97136.69;;;21.37;63.64
78206;BME280;67480;48.920;12.880;2023-08-17T10:55:57;97142.53;;;21.39;63.55
78206;BME280;67480;48.920;12.880;2023-08-17T10:58:22;97146.00;;;21.40;63.37
78206;BME280;67480;48.920;12.880;2023-08-17T11:00:54;97141.66;;;21.44;63.24
78206;BME280;67480;48.920;12.880;2023-08-17T11:03:22;97137.06;;;21.44;63.53
78206;BME280;67480;48.920;12.880;2023-08-17T11:05:53;97141.03;;;21.47;63.59
78206;BME280;67480;48.920;12.880;2023-08-17T11:08:38;97136.47;;;21.48;63.75
78206;BME280;67480;48.920;12.880;2023-08-17T11:11:09;97135.84;;;21.51;63.44
78206;BME280;67480;48.920;12.880;2023-08-17T11:13:44;97126.41;;;21.53;63.58
78206;BME280;67480;48.920;12.880;2023-08-17T11:16:12;97136.84;;;21.55;63.83
78206;BME280;67480;48.920;12.880;2023-08-17T11:18:41;97129.28;;;21.57;63.46
78206;BME280;67480;48.920;12.880;2023-08-17T11:21:07;97139.69;;;21.58;63.30
78206;BME280;67480;48.920;12.880;2023-08-17T11:23:35;97132.94;;;21.61;63.25
78206;BME280;67480;48.920;12.880;2023-08-17T11:26:01;97118.44;;;21.62;63.41
78206;BME280;67480;48.920;12.880;2023-08-17T11:28:29;97120.50;;;21.65;63.21
78206;BME280;67480;48.920;12.880;2023-08-17T11:31:02;97110.56;;;21.65;63.30
78206;BME280;67480;48.920;12.880;2023-08-17T11:33:29;97117.22;;;21.68;63.01
78206;BME280;67480;48.920;12.880;2023-08-17T11:35:58;97119.28;;;21.71;63.07
78206;BME280;67480;48.920;12.880;2023-08-17T11:38:25;97117.72;;;21.70;63.23
78206;BME280;67480;48.920;12.880;2023-08-17T11:40:51;97111.72;;;21.73;63.18
78206;BME280;67480;48.920;12.880;2023-08-17T11:43:18;97113.31;;;21.74;63.55
78206;BME280;67480;48.920;12.880;2023-08-17T11:45:44;97117.25;;;21.77;63.58
78206;BME280;67480;48.920;12.880;2023-08-17T11:48:09;97115.88;;;21.79;63.59
78206;BME280;67480;48.920;12.880;2023-08-17T11:50:35;97112.88;;;21.81;63.20
78206;BME280;67480;48.920;12.880;2023-08-17T11:53:00;97120.59;;;21.82;62.94
78206;BME280;67480;48.920;12.880;2023-08-17T11:55:26;97109.28;;;21.85;63.31
78206;BME280;67480;48.920;12.880;2023-08-17T11:57:52;97112.44;;;21.87;63.03
78206;BME280;67480;48.920;12.880;2023-08-17T12:00:19;97106.78;;;21.89;63.42
78206;BME280;67480;48.920;12.880;2023-08-17T12:02:49;97117.97;;;21.91;63.28
78206;BME280;67480;48.920;12.880;2023-08-17T12:05:20;97111.25;;;21.94;63.66
78206;BME280;67480;48.920;12.880;2023-08-17T12:07:48;97106.38;;;21.96;62.98
78206;BME280;67480;48.920;12.880;2023-08-17T12:10:13;97106.06;;;21.97;63.54
78206;BME280;67480;48.920;12.880;2023-08-17T12:12:39;97099.59;;;21.98;63.68
78206;BME280;67480;48.920;12.880;2023-08-17T12:15:06;97098.50;;;21.99;63.54
78206;BME280;67480;48.920;12.880;2023-08-17T12:17:31;97097.41;;;22.00;63.07
78206;BME280;67480;48.920;12.880;2023-08-17T12:19:58;97092.50;;;22.02;62.85
78206;BME280;67480;48.920;12.880;2023-08-17T12:22:25;97084.97;;;22.04;63.52
78206;BME280;67480;48.920;12.880;2023-08-17T12:24:53;97094.59;;;22.05;62.87
78206;BME280;67480;48.920;12.880;2023-08-17T12:27:18;97076.31;;;22.07;63.10
78206;BME280;67480;48.920;12.880;2023-08-17T12:32:14;97082.63;;;22.12;62.98
78206;BME280;67480;48.920;12.880;2023-08-17T12:34:40;97077.72;;;22.14;62.78
78206;BME280;67480;48.920;12.880;2023-08-17T12:37:08;97070.97;;;22.16;62.63
78206;BME280;67480;48.920;12.880;2023-08-17T12:39:34;97070.19;;;22.16;62.64
78206;BME280;67480;48.920;12.880;2023-08-17T12:42:00;97069.56;;;22.19;62.39
78206;BME280;67480;48.920;12.880;2023-08-17T12:44:25;97072.44;;;22.22;62.60
78206;BME280;67480;48.920;12.880;2023-08-17T12:46:50;97056.34;;;22.22;62.36
78206;BME280;67480;48.920;12.880;2023-08-17T12:49:16;97056.00;;;22.24;62.35
78206;BME280;67480;48.920;12.880;2023-08-17T12:51:41;97061.09;;;22.25;61.97
78206;BME280;67480;48.920;12.880;2023-08-17T12:54:07;97061.53;;;22.27;61.96
78206;BME280;67480;48.920;12.880;2023-08-17T12:56:33;97055.56;;;22.30;61.90